createdAt,value
2019-06-27T00:02:34.770Z,25.40
2019-06-27T00:05:12.666Z,25.30
2019-06-27T00:07:52.632Z,25.40
2019-06-27T00:10:34.248Z,25.30
2019-06-27T00:13:10.457Z,25.40
2019-06-27T00:15:49.591Z,25.40
2019-06-27T00:18:26.685Z,25.30
2019-06-27T00:21:07.641Z,25.30
2019-06-27T00:23:50.092Z,25.30
2019-06-27T00:26:29.094Z,25.20
2019-06-27T00:29:06.121Z,25.20
2019-06-27T00:31:44.371Z,25.20
2019-06-27T00:34:20.089Z,25.20
2019-06-27T00:36:56.482Z,25.10
2019-06-27T00:39:31.523Z,25.10
2019-06-27T00:42:13.581Z,25.10
2019-06-27T00:44:53.050Z,25.00
2019-06-27T00:47:28.510Z,25.00
2019-06-27T00:50:07.434Z,24.80
2019-06-27T00:52:52.503Z,24.80
2019-06-27T00:55:30.099Z,24.90
2019-06-27T00:58:07.093Z,25.00
2019-06-27T01:00:45.586Z,24.90
2019-06-27T01:03:30.099Z,24.90
2019-06-27T01:06:05.119Z,24.80
2019-06-27T01:08:44.624Z,24.80
2019-06-27T01:11:20.101Z,24.80
2019-06-27T01:13:59.595Z,24.80
2019-06-27T01:16:36.091Z,24.70
2019-06-27T01:19:13.097Z,24.60
2019-06-27T01:21:49.396Z,24.60
2019-06-27T01:24:27.305Z,24.70
2019-06-27T01:27:03.968Z,24.70
2019-06-27T01:29:39.414Z,24.60
2019-06-27T01:32:16.502Z,24.50
2019-06-27T01:34:53.984Z,24.50
2019-06-27T01:37:34.553Z,24.40
2019-06-27T01:40:16.751Z,24.40
2019-06-27T01:42:53.666Z,24.40
2019-06-27T01:45:46.681Z,24.40
2019-06-27T01:48:24.584Z,24.40
2019-06-27T01:51:02.113Z,24.30
2019-06-27T01:53:40.387Z,24.20
2019-06-27T01:56:16.647Z,24.30
2019-06-27T01:58:53.322Z,24.30
2019-06-27T02:01:29.595Z,24.30
2019-06-27T02:04:06.111Z,24.30
2019-06-27T02:06:41.119Z,24.30
2019-06-27T02:09:18.573Z,24.20
2019-06-27T02:11:55.453Z,24.20
2019-06-27T02:14:31.313Z,24.10
2019-06-27T02:17:10.453Z,24.00
2019-06-27T02:19:46.127Z,24.00
2019-06-27T02:22:26.644Z,24.10
2019-06-27T02:25:03.334Z,24.00
2019-06-27T02:27:43.688Z,23.90
2019-06-27T02:30:29.599Z,23.80
2019-06-27T02:33:06.443Z,23.80
2019-06-27T02:35:50.092Z,23.90
2019-06-27T02:38:25.318Z,23.90
2019-06-27T02:41:03.632Z,23.90
2019-06-27T02:43:40.706Z,23.80
2019-06-27T02:46:18.418Z,23.80
2019-06-27T02:48:54.471Z,23.90
2019-06-27T02:51:32.775Z,23.90
2019-06-27T02:54:11.109Z,23.90
2019-06-27T02:56:46.534Z,23.80
2019-06-27T02:59:22.784Z,23.70
2019-06-27T03:02:03.778Z,23.70
2019-06-27T03:04:41.659Z,23.70
2019-06-27T03:07:20.588Z,23.60
2019-06-27T03:10:01.390Z,23.50
2019-06-27T03:12:40.706Z,23.50
2019-06-27T03:15:20.639Z,23.70
2019-06-27T03:17:59.975Z,23.60
2019-06-27T03:20:38.707Z,23.60
2019-06-27T03:23:20.484Z,23.60
2019-06-27T03:25:56.113Z,23.60
2019-06-27T03:28:50.549Z,23.60
2019-06-27T03:31:17.134Z,23.50
2019-06-27T03:33:56.802Z,23.50
2019-06-27T03:36:33.469Z,23.50
2019-06-27T03:39:09.322Z,23.40
2019-06-27T03:41:48.111Z,23.40
2019-06-27T03:44:24.099Z,23.40
2019-06-27T03:47:00.976Z,23.30
2019-06-27T03:49:35.600Z,23.30
2019-06-27T03:52:11.114Z,23.30
2019-06-27T03:54:49.566Z,23.40
2019-06-27T03:57:24.799Z,23.40
2019-06-27T04:00:02.208Z,23.30
2019-06-27T04:02:37.333Z,23.30
2019-06-27T04:05:13.378Z,23.30
2019-06-27T04:07:49.436Z,23.30
2019-06-27T04:10:27.542Z,23.20
2019-06-27T04:13:04.828Z,23.20
2019-06-27T04:15:41.138Z,23.30
2019-06-27T04:18:17.128Z,23.30
2019-06-27T04:20:53.627Z,23.40
2019-06-27T04:23:30.699Z,23.50
2019-06-27T04:26:08.600Z,23.60
2019-06-27T04:28:44.657Z,23.60
2019-06-27T04:42:17.541Z,24.00
2019-06-27T04:52:52.591Z,24.10
2019-06-27T04:55:29.684Z,24.30
2019-06-27T04:58:06.756Z,24.30
2019-06-27T05:00:46.711Z,24.20
2019-06-27T05:07:02.528Z,24.20
2019-06-27T05:22:50.746Z,24.70
2019-06-27T05:25:31.708Z,24.70
2019-06-27T05:28:09.131Z,24.70
2019-06-27T05:30:50.428Z,24.70
2019-06-27T05:33:29.521Z,24.70
2019-06-27T05:53:29.650Z,24.90
2019-06-27T05:56:09.581Z,25.10
2019-06-27T06:02:16.395Z,25.20
2019-06-27T06:05:10.075Z,25.30
2019-06-27T06:07:46.726Z,25.30
2019-06-27T06:29:08.200Z,25.50
2019-06-27T06:31:44.417Z,25.50
2019-06-27T06:37:27.680Z,25.60
2019-06-27T06:56:09.317Z,26.10
2019-06-27T06:58:59.139Z,26.20
2019-06-27T07:17:03.788Z,26.40
2019-06-27T07:23:15.207Z,26.60
2019-06-27T07:25:55.618Z,26.70
2019-06-27T07:29:04.367Z,26.80
2019-06-27T07:35:32.135Z,26.70
2019-06-27T07:38:35.424Z,26.70
2019-06-27T07:41:19.086Z,26.80
2019-06-27T07:51:08.680Z,27.10
2019-06-27T07:54:27.954Z,27.00
2019-06-27T08:00:39.886Z,27.10
2019-06-27T08:03:17.973Z,27.20
2019-06-27T08:09:24.800Z,27.30
2019-06-27T08:15:35.665Z,27.50
2019-06-27T08:21:45.740Z,27.90
2019-06-27T08:27:52.136Z,27.90
2019-06-27T08:37:37.034Z,28.00
2019-06-27T08:40:28.358Z,28.00
2019-06-27T08:43:21.287Z,28.10
2019-06-27T08:46:04.752Z,28.20
2019-06-27T08:49:04.963Z,28.30
2019-06-27T08:51:43.676Z,28.50
2019-06-27T08:54:20.335Z,28.60
2019-06-27T08:56:57.635Z,28.60
2019-06-27T08:59:34.234Z,28.70
2019-06-27T09:02:09.563Z,28.90
2019-06-27T09:04:50.725Z,28.90
2019-06-27T09:07:26.779Z,29.00
2019-06-27T09:11:04.896Z,29.10
2019-06-27T09:14:39.872Z,29.30
2019-06-27T09:26:23.627Z,29.60
2019-06-27T09:42:27.013Z,29.60
2019-06-27T09:45:06.136Z,29.50
2019-06-27T09:53:49.824Z,29.60
2019-06-27T09:56:24.263Z,29.70
2019-06-27T09:58:58.270Z,29.80
2019-06-27T10:04:37.795Z,29.90
2019-06-27T10:11:28.657Z,30.00
2019-06-27T10:17:45.278Z,30.10
2019-06-27T10:20:20.692Z,30.10
2019-06-27T10:22:57.579Z,30.10
2019-06-27T10:28:55.765Z,30.20
2019-06-27T10:38:48.670Z,30.20
2019-06-27T10:41:24.765Z,30.30
2019-06-27T10:44:01.186Z,30.40
2019-06-27T10:46:35.815Z,30.40
2019-06-27T10:59:39.787Z,30.50
2019-06-27T11:08:07.319Z,30.70
2019-06-27T11:10:51.155Z,30.70
2019-06-27T11:13:33.117Z,30.70
2019-06-27T11:19:51.851Z,30.80
2019-06-27T11:22:22.735Z,30.80
2019-06-27T11:25:35.936Z,30.90
2019-06-27T11:28:18.880Z,30.90
2019-06-27T11:31:03.136Z,31.00
2019-06-27T11:33:40.823Z,31.00
2019-06-27T11:36:19.259Z,31.00
2019-06-27T11:38:55.808Z,31.00
2019-06-27T11:41:47.419Z,31.00
2019-06-27T11:51:02.046Z,31.20
2019-06-27T11:53:41.164Z,31.30
2019-06-27T11:56:17.833Z,31.40
2019-06-27T11:58:58.807Z,31.50
2019-06-27T12:01:36.205Z,31.50
2019-06-27T12:04:16.857Z,31.70
2019-06-27T12:06:54.034Z,31.80
2019-06-27T12:09:31.632Z,31.80
2019-06-27T12:12:14.877Z,32.00
2019-06-27T12:14:54.605Z,32.00
2019-06-27T12:24:01.623Z,32.10
2019-06-27T12:26:37.685Z,32.30
2019-06-27T12:33:47.147Z,32.40
2019-06-27T12:40:14.842Z,32.50
2019-06-27T12:53:41.962Z,32.50
2019-06-27T12:56:19.334Z,32.50
2019-06-27T12:58:55.336Z,32.50
2019-06-27T13:05:11.923Z,32.40
2019-06-27T13:07:51.868Z,32.40
2019-06-27T13:10:37.552Z,32.40
2019-06-27T13:20:30.866Z,32.50
2019-06-27T13:23:08.556Z,32.60
2019-06-27T13:25:47.687Z,32.70
2019-06-27T13:28:26.610Z,32.70
2019-06-27T13:31:28.879Z,32.80
2019-06-27T13:34:36.080Z,32.80
2019-06-27T13:37:02.386Z,32.80
2019-06-27T13:49:45.334Z,33.00
2019-06-27T13:56:08.166Z,33.10
2019-06-27T14:01:53.855Z,33.10
2019-06-27T14:08:17.252Z,33.10
2019-06-27T14:14:16.353Z,33.10
2019-06-27T14:16:54.980Z,33.10
2019-06-27T14:19:57.873Z,33.20
2019-06-27T14:25:39.352Z,33.20
2019-06-27T14:31:50.360Z,33.40
2019-06-27T14:34:44.858Z,33.50
2019-06-27T14:37:30.726Z,33.50
2019-06-27T14:40:36.928Z,33.50
2019-06-27T14:43:32.009Z,33.60
2019-06-27T14:46:46.603Z,33.50
2019-06-27T14:49:38.197Z,33.60
2019-06-27T14:52:21.373Z,33.60
2019-06-27T14:55:07.713Z,33.60
2019-06-27T15:11:44.893Z,34.10
2019-06-27T15:18:02.506Z,34.10
2019-06-27T15:20:43.954Z,34.20
2019-06-27T15:46:59.044Z,34.40
2019-06-27T15:49:40.415Z,34.40
2019-06-27T15:56:54.635Z,34.50
2019-06-27T16:03:10.196Z,34.60
2019-06-27T16:18:41.005Z,34.80
2019-06-27T16:22:19.380Z,34.90
2019-06-27T16:24:58.379Z,34.90
2019-06-27T16:33:42.747Z,34.80
2019-06-27T16:40:40.750Z,34.80
2019-06-27T16:43:21.399Z,34.90
2019-06-27T16:49:26.890Z,34.80
2019-06-27T16:55:07.882Z,35.00
2019-06-27T16:57:44.946Z,35.60
2019-06-27T17:00:21.621Z,36.40
2019-06-27T17:12:26.621Z,39.00
2019-06-27T17:21:12.409Z,37.20
2019-06-27T17:23:47.414Z,36.50
2019-06-27T17:29:36.426Z,35.40
2019-06-27T17:36:16.143Z,35.30
2019-06-27T17:42:40.423Z,34.50
2019-06-27T17:49:06.287Z,34.10
2019-06-27T17:51:48.289Z,33.90
2019-06-27T18:10:58.944Z,33.20
2019-06-27T18:17:01.844Z,33.00
2019-06-27T18:23:47.753Z,32.80
2019-06-27T18:40:13.659Z,32.40
2019-06-27T18:55:39.769Z,32.10
2019-06-27T19:01:16.061Z,31.80
2019-06-27T19:07:47.018Z,31.80
2019-06-27T19:10:40.278Z,31.80
2019-06-27T19:13:40.911Z,31.70
2019-06-27T19:16:29.454Z,31.60
2019-06-27T19:19:30.435Z,31.50
2019-06-27T19:51:55.074Z,30.60
2019-06-27T19:54:46.907Z,30.50
2019-06-27T19:57:43.026Z,30.40
2019-06-27T20:00:42.044Z,30.40
2019-06-27T20:06:40.456Z,30.40
2019-06-27T20:13:47.844Z,30.20
2019-06-27T20:16:07.453Z,30.20
2019-06-27T20:29:20.912Z,30.00
2019-06-27T20:32:10.282Z,30.00
2019-06-27T20:34:50.434Z,30.00
2019-06-27T20:41:04.469Z,29.90
2019-06-27T20:43:45.472Z,29.90
2019-06-27T20:46:38.460Z,29.90
2019-06-27T20:49:18.170Z,29.80
2019-06-27T21:02:38.939Z,29.90
2019-06-27T21:09:19.945Z,29.60
2019-06-27T21:12:03.983Z,29.60
2019-06-27T21:18:38.481Z,29.40
2019-06-27T21:25:14.102Z,29.20
2019-06-27T21:28:10.854Z,29.00
2019-06-27T21:37:27.287Z,28.90
2019-06-27T21:40:09.085Z,28.80
2019-06-27T21:52:33.128Z,28.60
2019-06-27T21:55:37.030Z,28.60
2019-06-27T22:05:18.498Z,28.40
2019-06-27T22:11:35.901Z,28.30
2019-06-27T22:31:03.524Z,28.10
2019-06-27T22:37:08.421Z,28.00
2019-06-27T22:43:47.991Z,28.00
2019-06-27T22:46:56.496Z,27.90
2019-06-27T22:49:51.710Z,27.90
2019-06-27T22:56:10.998Z,27.70
2019-06-27T22:58:53.838Z,27.70
2019-06-27T23:01:29.550Z,27.50
2019-06-27T23:04:07.499Z,27.50
2019-06-27T23:09:58.185Z,27.50
2019-06-27T23:13:12.952Z,27.40
2019-06-27T23:19:24.253Z,27.30
2019-06-27T23:25:46.501Z,27.20
2019-06-27T23:31:41.740Z,27.20
2019-06-27T23:38:03.279Z,27.10
2019-06-27T23:44:27.693Z,27.00
2019-06-27T23:50:29.171Z,26.90
2019-06-27T23:56:43.944Z,27.00
